Time;durP1;ratioP1;P1;durP2;ratioP2;P2;SDS_P1;SDS_P2;PMS_P1;PMS_P2;Temp;Humidity;BMP_temperature;BMP_pressure;BME280_temperature;BME280_humidity;BME280_pressure;Samples;Min_cycle;Max_cycle;Signal;HPM_P1;HPM_P2
2022/04/28 00:00:47;;;;;;;;;;;;;;;10.00;100.00;99973.56;1819447;79;20127;-76
2022/04/28 00:03:14;;;;;;;;;;;;;;;9.98;100.00;99983.70;1819876;79;20132;-76
2022/04/28 00:05:41;;;;;;;;;;;;;;;9.94;100.00;99990.45;1819665;79;20159;-76
2022/04/28 00:08:10;;;;;;;;;;;;;;;9.91;100.00;100005.64;1819648;79;20148;-74
2022/04/28 00:10:37;;;;;;;;;;;;;;;9.85;100.00;99997.19;1819772;79;20144;-76
2022/04/28 00:13:06;;;;;;;;;;;;;;;9.82;100.00;99996.17;1819094;79;20175;-75
2022/04/28 00:15:36;;;;;;;;;;;;;;;9.80;100.00;99994.66;1819464;79;20117;-77
2022/04/28 00:18:03;;;;;;;;;;;;;;;9.79;100.00;99995.17;1819350;79;20140;-76
2022/04/28 00:20:30;;;;;;;;;;;;;;;9.79;100.00;99998.36;1812904;78;20137;-76
2022/04/28 00:22:59;;;;;;;;;;;;;;;9.78;100.00;100000.23;1811157;79;20117;-76
2022/04/28 00:25:26;;;;;;;;;;;;;;;9.77;100.00;100001.22;1811330;79;20156;-75
2022/04/28 00:27:54;;;;;;;;;;;;;;;9.76;100.00;100004.12;1808740;79;20167;-76
2022/04/28 00:30:20;;;;;;;;;;;;;;;9.73;100.00;100012.55;1788018;80;20101;-75
2022/04/28 00:32:48;;;;;;;;;;;;;;;9.71;100.00;100018.62;1766768;80;20116;-76
2022/04/28 00:35:16;;;;;;;;;;;;;;;9.69;100.00;100027.72;1783389;80;20161;-75
2022/04/28 00:37:43;;;;;;;;;;;;;;;9.67;100.00;100031.09;1782947;81;20106;-75
2022/04/28 00:40:13;;;;;;;;;;;;;;;9.65;100.00;100034.47;1782640;81;20155;-75
2022/04/28 00:42:41;;;;;;;;;;;;;;;9.64;100.00;100040.03;1783169;80;20407;-76
2022/04/28 00:45:09;;;;;;;;;;;;;;;9.61;100.00;100050.63;1783097;81;20091;-76
2022/04/28 00:50:41;;;;;;;;;;;;;;;9.63;100.00;100063.97;1783067;81;20359;-75
2022/04/28 00:53:08;;;;;;;;;;;;;;;9.62;100.00;100063.14;1783253;81;20110;-76
2022/04/28 00:55:35;;;;;;;;;;;;;;;9.61;100.00;100067.34;1782888;81;20150;-76
2022/04/28 00:58:04;;;;;;;;;;;;;;;9.58;100.00;100077.11;1783468;81;20125;-76
2022/04/28 01:00:31;;;;;;;;;;;;;;;9.58;100.00;100093.31;1783682;81;20134;-76
2022/04/28 01:03:00;;;;;;;;;;;;;;;9.57;100.00;100106.48;1782599;81;20355;-75
2022/04/28 01:05:29;;;;;;;;;;;;;;;9.53;100.00;100122.16;1782789;80;20119;-77
2022/04/28 01:07:58;;;;;;;;;;;;;;;9.52;100.00;100135.30;1783328;81;20119;-76
2022/04/28 01:10:27;;;;;;;;;;;;;;;9.53;100.00;100141.06;1782763;81;20110;-75
2022/04/28 01:12:55;;;;;;;;;;;;;;;9.54;100.00;100149.99;1783024;81;20494;-76
2022/04/28 01:15:27;;;;;;;;;;;;;;;9.55;100.00;100172.78;1782619;80;20130;-76
2022/04/28 01:17:56;;;;;;;;;;;;;;;9.55;100.00;100186.79;1782620;81;20110;-76
2022/04/28 01:20:24;;;;;;;;;;;;;;;9.57;100.00;100191.52;1799241;79;20127;-76
2022/04/28 01:22:53;;;;;;;;;;;;;;;9.55;100.00;100204.34;1809777;79;20094;-76
2022/04/28 01:25:21;;;;;;;;;;;;;;;9.54;100.00;100221.53;1809303;79;20387;-77
2022/04/28 01:27:48;;;;;;;;;;;;;;;9.52;100.00;100228.94;1805638;79;20118;-76
2022/04/28 01:30:16;;;;;;;;;;;;;;;9.48;100.00;100238.70;1762011;80;20443;-75
2022/04/28 01:32:46;;;;;;;;;;;;;;;9.44;100.00;100247.30;1758507;82;20162;-77
2022/04/28 01:35:14;;;;;;;;;;;;;;;9.41;100.00;100246.25;1800046;79;20094;-76
2022/04/28 01:37:42;;;;;;;;;;;;;;;9.35;100.00;100243.69;1809460;79;20094;-76
2022/04/28 01:40:14;;;;;;;;;;;;;;;9.30;100.00;100240.62;1810877;79;20102;-76
2022/04/28 01:42:43;;;;;;;;;;;;;;;9.23;100.00;100226.06;1809672;79;20101;-76
2022/04/28 01:45:10;;;;;;;;;;;;;;;9.15;100.00;100220.09;1809558;79;20097;-75
2022/04/28 01:47:39;;;;;;;;;;;;;;;9.07;100.00;100206.56;1811064;79;20087;-77
2022/04/28 01:50:29;;;;;;;;;;;;;;;8.99;100.00;100203.28;1785342;80;20108;-76
2022/04/28 01:56:00;;;;;;;;;;;;;;;8.87;100.00;100185.17;1724427;83;20155;-75
2022/04/28 01:58:36;;;;;;;;;;;;;;;8.85;100.00;100171.00;1720606;83;20160;-77
2022/04/28 02:01:10;;;;;;;;;;;;;;;8.84;100.00;100174.69;1690944;84;20102;-75
2022/04/28 02:03:38;;;;;;;;;;;;;;;8.81;100.00;100175.00;1690505;85;20113;-76
2022/04/28 02:06:06;;;;;;;;;;;;;;;8.77;100.00;100170.09;1690937;85;20114;-75
2022/04/28 02:08:34;;;;;;;;;;;;;;;8.76;100.00;100166.53;1690569;85;20127;-76
2022/04/28 02:11:03;;;;;;;;;;;;;;;8.75;100.00;100160.81;1691088;85;20109;-76
2022/04/28 02:13:49;;;;;;;;;;;;;;;8.73;100.00;100152.87;1690930;84;20119;-76
2022/04/28 02:16:23;;;;;;;;;;;;;;;8.72;100.00;100151.67;1717758;83;20114;-76
2022/04/28 02:18:54;;;;;;;;;;;;;;;8.70;100.00;100145.59;1717186;84;20125;-76
2022/04/28 02:21:21;;;;;;;;;;;;;;;8.67;100.00;100148.09;1712936;84;20121;-75
2022/04/28 02:23:49;;;;;;;;;;;;;;;8.66;100.00;100151.80;1712654;84;20426;-76
2022/04/28 02:26:16;;;;;;;;;;;;;;;8.64;100.00;100147.08;1712953;84;20130;-76
2022/04/28 02:28:45;;;;;;;;;;;;;;;8.63;100.00;100145.37;1705733;84;20441;-75
2022/04/28 02:31:15;;;;;;;;;;;;;;;8.60;100.00;100142.98;1697632;85;20430;-76
2022/04/28 02:33:42;;;;;;;;;;;;;;;8.59;100.00;100137.73;1698028;83;20103;-77
2022/04/28 02:36:12;;;;;;;;;;;;;;;8.56;100.00;100140.26;1661082;86;20105;-76
2022/04/28 02:38:40;;;;;;;;;;;;;;;8.54;100.00;100146.31;1660107;86;20147;-76
2022/04/28 02:41:08;;;;;;;;;;;;;;;8.52;100.00;100144.28;1667807;86;20170;-77
2022/04/28 02:43:37;;;;;;;;;;;;;;;8.51;100.00;100145.27;1668203;86;20222;-76
2022/04/28 02:46:07;;;;;;;;;;;;;;;8.50;100.00;100153.86;1614734;89;20137;-76
2022/04/28 02:48:53;;;;;;;;;;;;;;;8.51;100.00;100150.14;1615294;89;20114;-76
2022/04/28 02:51:20;;;;;;;;;;;;;;;8.52;100.00;100155.05;1614698;89;20196;-76
2022/04/28 02:53:49;;;;;;;;;;;;;;;8.53;100.00;100149.99;1615077;89;20110;-77
2022/04/28 02:56:16;;;;;;;;;;;;;;;8.55;100.00;100152.03;1614733;89;20150;-76
2022/04/28 02:58:45;;;;;;;;;;;;;;;8.58;100.00;100138.25;1614885;89;20141;-76
2022/04/28 03:01:12;;;;;;;;;;;;;;;8.63;100.00;100143.19;1614746;89;20142;-77
2022/04/28 03:03:41;;;;;;;;;;;;;;;8.66;100.00;100144.23;1614765;89;20126;-76
2022/04/28 03:11:41;;;;;;;;;;;;;;;8.77;100.00;100157.96;1614151;89;20391;-77
2022/04/28 03:14:12;;;;;;;;;;;;;;;8.77;100.00;100160.66;1614407;89;20122;-77
2022/04/28 03:16:40;;;;;;;;;;;;;;;8.76;100.00;100170.57;1613885;89;20105;-76
2022/04/28 03:19:09;;;;;;;;;;;;;;;8.76;100.00;100173.27;1614162;89;20114;-76
2022/04/28 03:24:09;;;;;;;;;;;;;;;8.77;100.00;100166.89;1623229;89;20109;-77
2022/04/28 03:26:37;;;;;;;;;;;;;;;8.82;100.00;100176.70;1623216;85;20209;-76
2022/04/28 03:29:05;;;;;;;;;;;;;;;8.87;100.00;100183.83;1623291;89;20141;-77
2022/04/28 03:31:34;;;;;;;;;;;;;;;8.92;100.00;100192.77;1622899;89;20122;-76
2022/04/28 03:34:05;;;;;;;;;;;;;;;8.97;100.00;100204.45;1663908;86;20141;-76
2022/04/28 03:36:51;;;;;;;;;;;;;;;9.05;100.00;100212.11;1667791;86;20171;-76
2022/04/28 03:39:24;;;;;;;;;;;;;;;9.11;100.00;100230.34;1667554;85;20113;-76
2022/04/28 03:41:51;;;;;;;;;;;;;;;9.16;100.00;100237.14;1670116;85;20114;-76
2022/04/28 03:44:19;;;;;;;;;;;;;;;9.22;100.00;100243.25;1696135;85;20115;-76
2022/04/28 03:46:46;;;;;;;;;;;;;;;9.26;100.00;100256.76;1696229;85;20446;-75
2022/04/28 03:49:12;;;;;;;;;;;;;;;9.29;100.00;100273.48;1696191;85;20423;-76
2022/04/28 03:51:41;;;;;;;;;;;;;;;9.34;100.00;100271.67;1695997;84;20124;-76
2022/04/28 03:54:08;;;;;;;;;;;;;;;9.41;100.00;100282.69;1695998;85;20092;-77
2022/04/28 03:56:37;;;;;;;;;;;;;;;9.46;100.00;100284.42;1696629;85;20108;-76
2022/04/28 03:59:06;;;;;;;;;;;;;;;9.54;100.00;100293.06;1642181;88;20123;-77
2022/04/28 04:01:35;;;;;;;;;;;;;;;9.60;100.00;100300.03;1638684;88;20108;-77
2022/04/28 04:04:11;;;;;;;;;;;;;;;9.66;100.00;100310.70;1642199;87;20120;-77
2022/04/28 04:06:40;;;;;;;;;;;;;;;9.71;100.00;100314.28;1638913;88;20099;-77
2022/04/28 04:09:18;;;;;;;;;;;;;;;9.76;100.00;100316.84;1615577;89;20280;-74
2022/04/28 04:11:45;;;;;;;;;;;;;;;9.82;100.00;100324.30;1615663;89;20149;-77
2022/04/28 04:14:13;;;;;;;;;;;;;;;9.93;100.00;100333.14;1615715;89;20122;-75
2022/04/28 04:16:41;;;;;;;;;;;;;;;10.05;100.00;100340.80;1594424;89;20126;-76
2022/04/28 04:19:10;;;;;;;;;;;;;;;10.18;100.00;100351.68;1612107;89;20158;-76
2022/04/28 04:21:39;;;;;;;;;;;;;;;10.31;100.00;100353.97;1658983;85;20118;-70
2022/04/28 04:24:09;;;;;;;;;;;;;;;10.46;100.00;100357.76;1731433;83;20096;-71
2022/04/28 04:26:38;;;;;;;;;;;;;;;10.60;100.00;100368.47;1731475;83;20405;-71
2022/04/28 04:29:06;;;;;;;;;;;;;;;10.71;100.00;100370.89;1731710;83;20433;-71
2022/04/28 04:34:41;;;;;;;;;;;;;;;10.98;100.00;100391.42;1677849;84;20102;-76
2022/04/28 04:37:10;;;;;;;;;;;;;;;11.14;100.00;100401.44;1664183;86;20131;-75
2022/04/28 04:39:38;;;;;;;;;;;;;;;11.27;100.00;100410.94;1663944;86;20159;-75
2022/04/28 04:42:07;;;;;;;;;;;;;;;11.41;100.00;100419.75;1663313;86;20401;-75
2022/04/28 04:44:34;;;;;;;;;;;;;;;11.55;100.00;100437.20;1663550;86;20121;-73
2022/04/28 04:47:02;;;;;;;;;;;;;;;11.69;100.00;100441.95;1648692;86;20134;-72
2022/04/28 04:49:32;;;;;;;;;;;;;;;11.87;100.00;100449.91;1576727;90;20170;-73
2022/04/28 04:52:02;;;;;;;;;;;;;;;12.08;100.00;100456.72;1576653;91;20141;-73
2022/04/28 04:54:30;;;;;;;;;;;;;;;12.28;100.00;100465.33;1576610;91;20134;-74
2022/04/28 04:56:57;;;;;;;;;;;;;;;12.52;100.00;100486.14;1630443;88;20156;-72
2022/04/28 04:59:24;;;;;;;;;;;;;;;12.75;100.00;100492.17;1634826;88;20124;-74
2022/04/28 05:01:53;;;;;;;;;;;;;;;12.93;100.00;100490.09;1613359;88;20120;-73
2022/04/28 05:04:37;;;;;;;;;;;;;;;13.14;100.00;100493.56;1632297;87;20165;-73
2022/04/28 05:07:20;;;;;;;;;;;;;;;13.35;100.00;100502.98;1628249;88;20125;-73
2022/04/28 05:09:48;;;;;;;;;;;;;;;13.53;100.00;100516.29;1631761;87;20148;-73
2022/04/28 05:12:15;;;;;;;;;;;;;;;13.62;100.00;100532.91;1630148;87;20129;-69
2022/04/28 05:14:50;;;;;;;;;;;;;;;13.70;100.00;100538.79;1589619;90;20145;-68
2022/04/28 05:17:17;;;;;;;;;;;;;;;13.80;100.00;100553.84;1589031;90;20124;-69
2022/04/28 05:19:58;;;;;;;;;;;;;;;13.94;100.00;100556.30;1586655;90;20173;-70
2022/04/28 05:22:43;;;;;;;;;;;;;;;14.12;100.00;100554.63;1605061;89;20110;-70
2022/04/28 05:25:29;;;;;;;;;;;;;;;14.28;100.00;100572.70;1616291;89;20101;-71
2022/04/28 05:28:11;;;;;;;;;;;;;;;14.32;100.00;100569.09;1606568;89;20432;-69
2022/04/28 05:30:56;;;;;;;;;;;;;;;14.39;100.00;100576.86;1586607;89;20229;-67
2022/04/28 05:33:32;;;;;;;;;;;;;;;14.52;100.00;100565.34;1572830;90;20485;-68
2022/04/28 05:36:01;;;;;;;;;;;;;;;14.74;100.00;100565.02;1526112;94;20125;-66
2022/04/28 05:38:29;;;;;;;;;;;;;;;14.98;100.00;100566.12;1536088;91;20162;-68
2022/04/28 05:40:57;;;;;;;;;;;;;;;15.22;100.00;100574.20;1563182;92;20139;-68
2022/04/28 05:46:14;;;;;;;;;;;;;;;15.64;100.00;100575.38;1549922;92;20129;-69
2022/04/28 05:48:43;;;;;;;;;;;;;;;15.92;100.00;100582.34;1546389;92;20159;-70
2022/04/28 05:51:12;;;;;;;;;;;;;;;16.09;100.00;100585.64;1544862;92;20174;-67
2022/04/28 05:53:40;;;;;;;;;;;;;;;16.11;100.00;100587.16;1542107;92;20177;-69
2022/04/28 05:56:08;;;;;;;;;;;;;;;16.20;100.00;100589.24;1545753;92;20451;-69
2022/04/28 05:58:37;;;;;;;;;;;;;;;16.35;100.00;100589.16;1546180;92;20114;-68
2022/04/28 06:01:18;;;;;;;;;;;;;;;16.55;100.00;100593.95;1574651;90;20166;-68
2022/04/28 06:03:46;;;;;;;;;;;;;;;16.64;100.00;100600.95;1547480;91;20145;-70
2022/04/28 06:06:16;;;;;;;;;;;;;;;16.68;100.00;100592.72;1543586;93;20179;-68
2022/04/28 06:08:45;;;;;;;;;;;;;;;16.78;100.00;100600.55;1546135;91;20173;-68
2022/04/28 06:11:12;;;;;;;;;;;;;;;16.79;100.00;100599.52;1647258;83;20101;-67
2022/04/28 06:13:40;;;;;;;;;;;;;;;16.91;100.00;100606.66;1688675;84;20143;-66
2022/04/28 06:16:26;;;;;;;;;;;;;;;17.10;100.00;100607.31;1690934;85;20131;-68
2022/04/28 06:18:58;;;;;;;;;;;;;;;17.30;100.00;100609.33;1687841;85;20111;-70
2022/04/28 06:21:27;;;;;;;;;;;;;;;17.55;100.00;100606.96;1688707;84;20189;-69
2022/04/28 06:23:54;;;;;;;;;;;;;;;17.63;96.45;100614.44;1690229;85;20169;-66
2022/04/28 06:26:23;;;;;;;;;;;;;;;17.58;93.60;100610.63;1685713;85;20490;-68
2022/04/28 06:28:50;;;;;;;;;;;;;;;17.53;94.25;100613.13;1668640;85;20134;-67
2022/04/28 06:31:17;;;;;;;;;;;;;;;17.73;96.62;100617.34;1690747;85;20182;-65
2022/04/28 06:33:53;;;;;;;;;;;;;;;17.84;88.77;100618.11;1749063;80;20166;-65
2022/04/28 06:36:29;;;;;;;;;;;;;;;17.82;90.67;100612.84;1663480;85;20193;-66
2022/04/28 06:38:57;;;;;;;;;;;;;;;18.02;93.81;100610.72;1667832;85;20516;-66
2022/04/28 06:41:26;;;;;;;;;;;;;;;18.22;90.52;100608.05;1672030;85;20164;-73
2022/04/28 06:43:56;;;;;;;;;;;;;;;18.43;88.51;100604.80;1709778;84;20138;-69
2022/04/28 06:46:26;;;;;;;;;;;;;;;18.57;85.50;100605.99;1701010;84;20411;-68
2022/04/28 06:49:12;;;;;;;;;;;;;;;18.62;87.38;100601.23;1688311;84;20139;-69
2022/04/28 06:51:59;;;;;;;;;;;;;;;18.83;91.37;100611.70;1633928;87;20159;-70
2022/04/28 06:54:47;;;;;;;;;;;;;;;19.14;88.18;100604.16;1703063;84;20434;-71
2022/04/28 06:57:17;;;;;;;;;;;;;;;19.35;83.29;100601.19;1697305;83;20089;-72
2022/04/28 06:59:44;;;;;;;;;;;;;;;19.47;82.22;100601.34;1687282;83;20109;-70
2022/04/28 07:02:12;;;;;;;;;;;;;;;19.58;79.84;100601.73;1706506;83;20114;-71
2022/04/28 07:04:43;;;;;;;;;;;;;;;19.73;84.22;100594.95;1700296;84;20106;-71
2022/04/28 07:07:12;;;;;;;;;;;;;;;19.89;74.71;100603.20;1699694;84;20118;-71
2022/04/28 07:09:40;;;;;;;;;;;;;;;19.95;71.90;100606.97;1699144;83;20146;-72
2022/04/28 07:12:10;;;;;;;;;;;;;;;20.11;71.14;100606.98;1699577;84;20265;-72
2022/04/28 07:14:58;;;;;;;;;;;;;;;20.17;68.49;100603.88;1699572;84;20151;-72
2022/04/28 07:17:44;;;;;;;;;;;;;;;20.02;71.37;100604.20;1702551;83;20119;-71
2022/04/28 07:20:13;;;;;;;;;;;;;;;20.16;70.93;100605.80;1726015;83;20164;-71
2022/04/28 07:22:41;;;;;;;;;;;;;;;20.40;64.11;100606.92;1734728;83;20129;-73
2022/04/28 07:25:09;;;;;;;;;;;;;;;20.56;65.14;100602.79;1703499;83;20522;-72
2022/04/28 07:27:37;;;;;;;;;;;;;;;20.81;66.25;100604.73;1704553;83;20148;-68
2022/04/28 07:30:08;;;;;;;;;;;;;;;21.00;64.37;100604.22;1725160;83;20158;-69
2022/04/28 07:32:38;;;;;;;;;;;;;;;21.10;61.69;100610.59;1762915;79;20149;-65
2022/04/28 07:35:13;;;;;;;;;;;;;;;21.20;62.25;100608.16;1739955;81;20213;-67
2022/04/28 07:37:54;;;;;;;;;;;;;;;21.37;62.93;100613.37;1665172;86;20122;-68
2022/04/28 07:40:36;;;;;;;;;;;;;;;21.50;63.22;100606.91;1665139;86;20133;-68
2022/04/28 07:43:05;;;;;;;;;;;;;;;21.61;58.73;100611.62;1637845;88;20116;-69
2022/04/28 07:45:32;;;;;;;;;;;;;;;21.67;61.09;100602.14;1639589;87;20124;-67
2022/04/28 07:48:00;;;;;;;;;;;;;;;21.74;58.78;100601.53;1640895;87;20111;-70
2022/04/28 07:50:29;;;;;;;;;;;;;;;21.72;55.67;100599.55;1640636;87;20116;-75
2022/04/28 07:52:57;;;;;;;;;;;;;;;21.80;56.61;100604.20;1638602;87;20107;-69
2022/04/28 07:55:26;;;;;;;;;;;;;;;21.91;56.71;100593.48;1642005;86;20167;-68
2022/04/28 07:57:54;;;;;;;;;;;;;;;21.89;56.27;100586.83;1637337;88;20156;-67
2022/04/28 08:00:24;;;;;;;;;;;;;;;22.09;55.69;100587.09;1638269;88;20111;-69
2022/04/28 08:02:51;;;;;;;;;;;;;;;22.09;54.72;100585.70;1638579;88;20096;-65
2022/04/28 08:05:20;;;;;;;;;;;;;;;22.11;57.52;100587.14;1638121;88;20463;-67
2022/04/28 08:07:49;;;;;;;;;;;;;;;22.34;59.66;100584.19;1638990;88;20116;-73
2022/04/28 08:10:17;;;;;;;;;;;;;;;22.61;59.10;100573.59;1639135;88;20144;-71
2022/04/28 08:12:44;;;;;;;;;;;;;;;22.90;58.24;100570.42;1639695;86;20147;-73
2022/04/28 08:15:14;;;;;;;;;;;;;;;23.10;55.50;100578.90;1614990;87;20118;-70
2022/04/28 08:17:43;;;;;;;;;;;;;;;23.14;54.30;100581.46;1615312;89;20158;-71
2022/04/28 08:20:11;;;;;;;;;;;;;;;23.14;52.10;100581.46;1593931;89;20395;-70
2022/04/28 08:22:40;;;;;;;;;;;;;;;23.10;51.33;100574.20;1612186;88;20190;-69
2022/04/28 08:25:08;;;;;;;;;;;;;;;23.05;50.62;100576.02;1592039;89;20145;-68
2022/04/28 08:27:36;;;;;;;;;;;;;;;22.91;48.98;100576.77;1606805;89;20482;-68
2022/04/28 08:30:05;;;;;;;;;;;;;;;22.84;51.37;100580.19;1609205;89;20126;-68
2022/04/28 08:32:35;;;;;;;;;;;;;;;23.02;53.53;100580.08;1568225;89;20113;-71
2022/04/28 08:35:02;;;;;;;;;;;;;;;23.28;55.43;100576.53;1610400;89;20115;-69
2022/04/28 08:37:30;;;;;;;;;;;;;;;23.54;52.66;100568.81;1640009;87;20169;-68
2022/04/28 08:39:58;;;;;;;;;;;;;;;23.41;49.86;100567.14;1650944;84;20129;-71
2022/04/28 08:42:26;;;;;;;;;;;;;;;23.13;50.47;100573.73;1699591;84;20133;-68
2022/04/28 08:45:04;;;;;;;;;;;;;;;23.11;51.15;100570.38;1700130;84;20140;-69
2022/04/28 08:47:33;;;;;;;;;;;;;;;23.00;47.72;100576.73;1633434;87;20148;-70
2022/04/28 08:50:11;;;;;;;;;;;;;;;22.91;48.52;100576.25;1632172;88;20159;-70
2022/04/28 08:52:54;;;;;;;;;;;;;;;22.92;50.69;100570.19;1642840;86;20143;-69
2022/04/28 08:55:24;;;;;;;;;;;;;;;22.88;48.25;100569.00;1653691;86;20134;-69
2022/04/28 08:57:53;;;;;;;;;;;;;;;23.02;50.41;100568.19;1696557;85;20140;-68
2022/04/28 09:00:20;;;;;;;;;;;;;;;23.24;50.49;100574.80;1696729;85;20103;-69
2022/04/28 09:03:06;;;;;;;;;;;;;;;23.40;47.34;100571.00;1692585;83;20119;-69
2022/04/28 09:05:48;;;;;;;;;;;;;;;23.22;47.48;100572.83;1690424;83;20206;-68
2022/04/28 09:08:20;;;;;;;;;;;;;;;23.20;47.54;100572.23;1679223;85;20163;-69
2022/04/28 09:11:13;;;;;;;;;;;;;;;23.29;46.60;100579.60;1642063;84;20145;-68
2022/04/28 09:14:09;;;;;;;;;;;;;;;23.34;46.89;100567.30;1675366;84;20148;-68
2022/04/28 09:16:38;;;;;;;;;;;;;;;23.48;47.19;100559.05;1677844;85;20152;-70
2022/04/28 09:19:07;;;;;;;;;;;;;;;23.63;47.05;100559.89;1651184;86;21759;-69
2022/04/28 09:21:35;;;;;;;;;;;;;;;23.78;45.70;100562.66;1681159;84;20426;-69
2022/04/28 09:24:04;;;;;;;;;;;;;;;23.77;45.62;100565.14;1678822;84;20105;-68
2022/04/28 09:26:35;;;;;;;;;;;;;;;23.62;42.63;100555.98;1663681;85;20177;-66
2022/04/28 09:29:03;;;;;;;;;;;;;;;23.27;39.84;100569.36;1733207;82;20132;-68
2022/04/28 09:31:35;;;;;;;;;;;;;;;22.89;38.40;100565.14;1735917;81;20143;-67
2022/04/28 09:34:08;;;;;;;;;;;;;;;22.85;41.71;100563.41;1728762;81;20140;-68
2022/04/28 09:36:54;;;;;;;;;;;;;;;23.23;44.25;100562.63;1729482;81;20146;-69
2022/04/28 09:42:31;;;;;;;;;;;;;;;23.79;41.75;100546.39;1768616;81;20097;-69
2022/04/28 09:45:00;;;;;;;;;;;;;;;23.95;41.57;100546.17;1774466;80;20096;-70
2022/04/28 09:47:31;;;;;;;;;;;;;;;23.96;38.65;100554.22;1799798;80;20449;-70
2022/04/28 09:49:59;;;;;;;;;;;;;;;23.92;39.13;100559.09;1802254;80;20374;-72
2022/04/28 09:52:31;;;;;;;;;;;;;;;24.00;38.64;100554.56;1798316;80;20129;-71
2022/04/28 09:55:17;;;;;;;;;;;;;;;24.01;39.38;100550.70;1784035;80;20396;-73
2022/04/28 09:57:51;;;;;;;;;;;;;;;24.01;37.88;100554.84;1762537;81;20099;-71
2022/04/28 10:00:20;;;;;;;;;;;;;;;23.97;38.07;100542.07;1770041;80;20111;-69
2022/04/28 10:02:57;;;;;;;;;;;;;;;24.07;37.51;100545.58;1759071;80;20112;-70
2022/04/28 10:05:26;;;;;;;;;;;;;;;24.07;39.86;100553.86;1750197;80;20130;-72
2022/04/28 10:07:55;;;;;;;;;;;;;;;24.21;39.74;100551.08;1756979;80;20163;-71
2022/04/28 10:10:25;;;;;;;;;;;;;;;24.42;40.20;100536.23;1792687;80;20170;-70
2022/04/28 10:12:53;;;;;;;;;;;;;;;24.47;37.74;100546.52;1722169;81;20125;-69
2022/04/28 10:15:33;;;;;;;;;;;;;;;24.28;36.81;100547.33;1744453;82;20189;-69
2022/04/28 10:18:08;;;;;;;;;;;;;;;24.18;37.96;100560.41;1737319;82;20111;-69
2022/04/28 10:20:38;;;;;;;;;;;;;;;24.15;35.43;100551.23;1737716;81;20416;-70
2022/04/28 10:23:08;;;;;;;;;;;;;;;24.00;36.18;100549.87;1767454;80;20144;-69
2022/04/28 10:34:28;;;;;;;;;;;;;;;24.06;35.68;100567.36;1732965;81;20112;-68
2022/04/28 10:37:04;;;;;;;;;;;;;;;23.70;36.18;100567.48;1732524;83;20397;-68
2022/04/28 10:39:43;;;;;;;;;;;;;;;23.63;36.42;100552.98;1732603;83;20100;-72
2022/04/28 10:42:22;;;;;;;;;;;;;;;23.72;37.66;100558.95;1750302;81;20467;-71
2022/04/28 10:44:55;;;;;;;;;;;;;;;23.89;35.83;100560.44;1740199;81;20421;-71
2022/04/28 10:47:30;;;;;;;;;;;;;;;24.20;36.50;100556.84;1766357;81;20112;-69
2022/04/28 10:49:57;;;;;;;;;;;;;;;24.57;34.97;100556.41;1733756;83;20100;-73
2022/04/28 10:52:25;;;;;;;;;;;;;;;24.84;35.80;100560.69;1740355;83;20144;-75
2022/04/28 10:54:55;;;;;;;;;;;;;;;25.05;35.02;100557.68;1740540;83;20376;-70
2022/04/28 10:57:30;;;;;;;;;;;;;;;24.98;35.00;100555.64;1736637;83;20522;-71
2022/04/28 10:59:57;;;;;;;;;;;;;;;24.92;34.77;100551.14;1750298;81;20095;-72
2022/04/28 11:02:28;;;;;;;;;;;;;;;24.78;33.88;100543.74;1753838;80;20133;-71
2022/04/28 11:05:03;;;;;;;;;;;;;;;24.38;32.70;100547.48;1753106;81;20156;-71
2022/04/28 11:07:31;;;;;;;;;;;;;;;24.11;34.58;100543.98;1696527;83;20143;-70
2022/04/28 11:10:00;;;;;;;;;;;;;;;24.26;36.04;100547.02;1696275;85;20190;-70
2022/04/28 11:12:35;;;;;;;;;;;;;;;24.45;35.56;100546.77;1695929;85;20399;-71
2022/04/28 11:15:10;;;;;;;;;;;;;;;24.68;34.71;100556.02;1646505;86;20150;-72
2022/04/28 11:17:39;;;;;;;;;;;;;;;24.80;33.57;100552.61;1654485;86;20390;-72
2022/04/28 11:20:12;;;;;;;;;;;;;;;24.82;32.80;100551.29;1630783;88;20159;-71
2022/04/28 11:22:42;;;;;;;;;;;;;;;24.89;32.06;100546.94;1649585;86;20114;-72
2022/04/28 11:25:10;;;;;;;;;;;;;;;24.87;31.30;100540.83;1667935;86;20141;-70
2022/04/28 11:27:38;;;;;;;;;;;;;;;24.83;30.97;100547.41;1668305;86;20117;-72
2022/04/28 11:30:14;;;;;;;;;;;;;;;24.76;30.39;100535.70;1641974;87;20104;-69
2022/04/28 11:32:52;;;;;;;;;;;;;;;24.55;31.22;100531.77;1572727;91;20261;-71
2022/04/28 11:35:19;;;;;;;;;;;;;;;24.63;31.61;100534.12;1555631;91;20146;-70
2022/04/28 11:37:50;;;;;;;;;;;;;;;24.73;31.95;100522.92;1557496;92;20428;-70
2022/04/28 11:40:16;;;;;;;;;;;;;;;24.85;32.42;100524.21;1556394;91;20179;-71
2022/04/28 11:42:44;;;;;;;;;;;;;;;24.89;32.35;100526.20;1583519;91;20121;-70
2022/04/28 11:45:11;;;;;;;;;;;;;;;24.90;30.71;100529.27;1575562;91;20136;-71
2022/04/28 11:47:45;;;;;;;;;;;;;;;24.80;30.72;100525.79;1583300;91;20140;-71
2022/04/28 11:50:20;;;;;;;;;;;;;;;24.74;30.15;100517.70;1532482;93;20117;-73
2022/04/28 11:53:03;;;;;;;;;;;;;;;24.62;31.43;100526.91;1524138;93;20140;-71
2022/04/28 11:55:31;;;;;;;;;;;;;;;24.67;31.54;100513.72;1521021;94;20488;-71
2022/04/28 11:57:58;;;;;;;;;;;;;;;24.61;30.38;100508.66;1520655;94;20131;-70
2022/04/28 12:00:26;;;;;;;;;;;;;;;24.50;31.31;100508.72;1520788;94;20142;-70
2022/04/28 12:02:54;;;;;;;;;;;;;;;24.54;31.28;100507.14;1520207;94;20154;-71
2022/04/28 12:05:23;;;;;;;;;;;;;;;24.68;31.42;100517.31;1501095;94;20511;-68
2022/04/28 12:07:52;;;;;;;;;;;;;;;24.81;31.25;100510.06;1493950;95;20149;-67
2022/04/28 12:16:15;;;;;;;;;;;;;;;24.63;32.21;100502.89;1550649;93;20433;-68
2022/04/28 12:21:34;;;;;;;;;;;;;;;24.32;31.53;100498.76;1578456;88;20226;-68
2022/04/28 12:24:01;;;;;;;;;;;;;;;24.33;32.31;100498.52;1601149;88;20119;-70
2022/04/28 12:26:35;;;;;;;;;;;;;;;24.23;32.13;100496.40;1594620;89;20171;-68
2022/04/28 12:29:10;;;;;;;;;;;;;;;24.29;32.39;100497.32;1627166;84;20491;-69
2022/04/28 12:31:37;;;;;;;;;;;;;;;24.40;31.85;100496.41;1691077;84;20152;-72
2022/04/28 12:34:17;;;;;;;;;;;;;;;24.45;31.83;100499.27;1652963;86;20143;-72
2022/04/28 12:36:57;;;;;;;;;;;;;;;24.42;31.42;100491.47;1638446;88;20204;-72
2022/04/28 12:39:26;;;;;;;;;;;;;;;24.35;30.63;100496.88;1635418;88;20475;-71
2022/04/28 12:41:55;;;;;;;;;;;;;;;23.99;29.59;100488.83;1661374;86;20181;-71
2022/04/28 12:44:22;;;;;;;;;;;;;;;23.49;29.90;100500.54;1669523;86;20178;-72
2022/04/28 12:46:51;;;;;;;;;;;;;;;23.31;32.17;100494.11;1660777;86;20114;-73
2022/04/28 12:49:20;;;;;;;;;;;;;;;23.52;32.75;100489.57;1640754;86;20120;-72
2022/04/28 12:51:52;;;;;;;;;;;;;;;23.56;31.54;100485.22;1634033;88;20147;-71
2022/04/28 12:57:00;;;;;;;;;;;;;;;23.36;32.68;100486.49;1633178;88;20175;-69
2022/04/28 12:59:32;;;;;;;;;;;;;;;23.60;32.57;100486.39;1637196;87;20163;-70
2022/04/28 13:01:59;;;;;;;;;;;;;;;23.69;31.94;100482.14;1630070;87;20117;-70
2022/04/28 13:04:28;;;;;;;;;;;;;;;23.62;32.68;100479.56;1614649;89;20228;-72
2022/04/28 13:06:55;;;;;;;;;;;;;;;23.62;31.86;100483.70;1627990;88;20138;-69
2022/04/28 13:09:23;;;;;;;;;;;;;;;23.57;32.15;100481.36;1643154;85;20150;-72
2022/04/28 13:11:50;;;;;;;;;;;;;;;23.61;32.79;100483.39;1701206;84;20139;-72
2022/04/28 13:14:20;;;;;;;;;;;;;;;23.71;31.58;100481.38;1701008;84;20126;-71
2022/04/28 13:16:52;;;;;;;;;;;;;;;23.57;31.39;100481.36;1701624;84;20135;-72
2022/04/28 13:19:19;;;;;;;;;;;;;;;23.50;31.61;100482.36;1701251;84;20447;-71
2022/04/28 13:21:47;;;;;;;;;;;;;;;23.60;31.41;100482.25;1699612;84;20115;-69
2022/04/28 13:24:15;;;;;;;;;;;;;;;23.77;30.92;100487.83;1669912;86;20153;-72
2022/04/28 13:26:42;;;;;;;;;;;;;;;23.88;31.01;100491.09;1670129;86;20219;-72
2022/04/28 13:29:10;;;;;;;;;;;;;;;23.81;31.08;100478.81;1673547;85;20113;-71
2022/04/28 13:31:40;;;;;;;;;;;;;;;23.54;31.38;100490.98;1693924;84;20390;-71
2022/04/28 13:36:39;;;;;;;;;;;;;;;23.18;31.94;100487.52;1663142;86;20114;-70
2022/04/28 13:39:05;;;;;;;;;;;;;;;23.10;32.33;100486.50;1663781;86;20596;-71